createdAt,value
2023-05-06T00:01:10.773Z,72.70
2023-05-06T00:06:13.031Z,72.40
2023-05-06T00:11:15.430Z,72.50
2023-05-06T00:16:17.819Z,72.10
2023-05-06T00:21:20.334Z,72.80
2023-05-06T00:26:22.807Z,71.20
2023-05-06T00:31:25.120Z,71.20
2023-05-06T00:36:27.718Z,69.80
2023-05-06T00:41:33.750Z,69.10
2023-05-06T00:46:36.990Z,69.00
2023-05-06T00:51:39.275Z,68.60
2023-05-06T00:56:42.082Z,68.50
2023-05-06T01:01:44.917Z,68.60
2023-05-06T01:07:01.376Z,68.70
2023-05-06T01:12:24.109Z,68.90
2023-05-06T01:17:29.086Z,68.80
2023-05-06T01:22:36.583Z,68.90
2023-05-06T01:27:38.869Z,69.10
2023-05-06T01:32:53.046Z,69.10
2023-05-06T01:38:00.075Z,69.10
2023-05-06T01:43:05.793Z,69.50
2023-05-06T01:48:09.431Z,69.80
2023-05-06T01:53:11.830Z,69.60
2023-05-06T01:58:14.290Z,70.00
2023-05-06T02:03:17.158Z,70.10
2023-05-06T02:08:19.708Z,70.10
2023-05-06T02:13:22.155Z,70.40
2023-05-06T02:18:25.469Z,69.90
2023-05-06T02:23:27.833Z,70.20
2023-05-06T02:28:30.350Z,70.30
2023-05-06T02:33:32.600Z,70.30
2023-05-06T02:38:34.873Z,70.50
2023-05-06T02:43:37.125Z,70.70
2023-05-06T02:48:40.664Z,70.60
2023-05-06T02:53:42.912Z,71.10
2023-05-06T02:58:45.162Z,70.90
2023-05-06T03:03:48.156Z,71.20
2023-05-06T03:08:50.484Z,71.20
2023-05-06T03:13:53.385Z,71.30
2023-05-06T03:18:55.909Z,71.70
2023-05-06T03:23:58.708Z,71.40
2023-05-06T03:29:05.020Z,71.60
2023-05-06T03:34:07.394Z,72.30
2023-05-06T03:39:10.949Z,72.60
2023-05-06T03:44:14.977Z,72.80
2023-05-06T03:49:17.529Z,72.90
2023-05-06T03:54:22.928Z,72.80
2023-05-06T03:59:25.332Z,73.20
2023-05-06T04:04:28.816Z,73.20
2023-05-06T04:09:33.447Z,72.90
2023-05-06T04:14:40.110Z,72.80
2023-05-06T04:19:43.431Z,72.70
2023-05-06T04:24:45.877Z,72.50
2023-05-06T04:29:49.010Z,72.70
2023-05-06T04:34:53.799Z,72.60
2023-05-06T04:39:57.190Z,72.50
2023-05-06T04:44:59.502Z,72.00
2023-05-06T04:50:06.764Z,71.90
2023-05-06T04:55:11.265Z,72.30
2023-05-06T05:00:18.174Z,73.30
2023-05-06T05:05:22.288Z,72.20
2023-05-06T05:10:27.561Z,71.50
2023-05-06T05:15:30.186Z,71.10
2023-05-06T05:20:33.139Z,71.50
2023-05-06T05:25:38.030Z,71.60
2023-05-06T05:30:40.269Z,71.50
2023-05-06T05:35:44.720Z,71.30
2023-05-06T05:40:48.547Z,71.30
2023-05-06T05:45:51.383Z,70.50
2023-05-06T05:50:54.708Z,71.50
2023-05-06T05:55:57.198Z,73.40
2023-05-06T06:00:59.756Z,73.90
2023-05-06T06:06:02.707Z,77.10
2023-05-06T06:11:06.330Z,77.40
2023-05-06T06:16:13.706Z,77.60
2023-05-06T06:21:16.039Z,80.30
2023-05-06T06:26:18.351Z,79.40
2023-05-06T06:31:20.712Z,79.80
2023-05-06T06:36:23.003Z,78.80
2023-05-06T06:41:26.466Z,77.90
2023-05-06T06:46:28.776Z,78.50
2023-05-06T06:51:31.789Z,77.30
2023-05-06T06:56:36.958Z,77.10
2023-05-06T07:01:41.606Z,76.90
2023-05-06T07:06:44.378Z,77.90
2023-05-06T07:11:46.672Z,78.60
2023-05-06T07:16:51.475Z,78.70
2023-05-06T07:21:54.143Z,78.50
2023-05-06T07:26:56.721Z,80.80
2023-05-06T07:31:58.973Z,82.50
2023-05-06T07:37:01.696Z,85.00
2023-05-06T07:42:03.983Z,86.90
2023-05-06T07:47:06.457Z,87.80
2023-05-06T07:52:08.825Z,89.00
2023-05-06T07:57:11.170Z,90.20
2023-05-06T08:02:13.468Z,90.10
2023-05-06T08:07:16.281Z,90.70
2023-05-06T08:12:18.515Z,91.50
2023-05-06T08:17:21.167Z,92.00
2023-05-06T08:22:23.405Z,93.60
2023-05-06T08:27:25.720Z,94.00
2023-05-06T08:32:28.012Z,94.90
2023-05-06T08:37:30.783Z,97.50
2023-05-06T08:42:36.820Z,98.10
2023-05-06T08:47:39.334Z,97.80
2023-05-06T08:52:42.054Z,99.90
2023-05-06T08:57:46.302Z,99.50
2023-05-06T09:02:48.771Z,99.90
2023-05-06T09:07:51.633Z,99.90
2023-05-06T09:12:54.887Z,99.90
2023-05-06T09:17:57.298Z,99.90
2023-05-06T09:23:01.284Z,99.90
2023-05-06T09:28:08.858Z,99.90
2023-05-06T09:33:11.682Z,99.90
2023-05-06T09:38:13.920Z,99.90
2023-05-06T09:43:16.725Z,99.90
2023-05-06T09:48:19.032Z,99.90
2023-05-06T09:53:22.986Z,99.90
2023-05-06T09:58:26.435Z,99.90
2023-05-06T10:03:29.440Z,99.90
2023-05-06T10:08:34.362Z,99.90
2023-05-06T10:13:38.872Z,99.90
2023-05-06T10:18:42.093Z,99.90
2023-05-06T10:24:11.415Z,99.90
2023-05-06T10:29:13.792Z,99.90
2023-05-06T10:34:17.487Z,99.90
2023-05-06T10:39:20.934Z,99.90
2023-05-06T10:45:05.554Z,99.90
2023-05-06T10:50:22.651Z,99.90
2023-05-06T10:55:35.948Z,99.90
2023-05-06T11:00:42.116Z,99.90
2023-05-06T11:05:52.065Z,99.90
2023-05-06T11:10:54.893Z,99.90
2023-05-06T11:15:58.422Z,99.90
2023-05-06T11:21:00.916Z,99.90
2023-05-06T11:26:07.819Z,99.90
2023-05-06T11:31:12.253Z,99.90
2023-05-06T11:36:16.513Z,99.90
2023-05-06T11:41:19.443Z,99.90
2023-05-06T11:46:23.571Z,99.90
2023-05-06T11:51:26.644Z,99.90
2023-05-06T11:56:28.901Z,99.90
2023-05-06T12:01:31.236Z,99.90
2023-05-06T12:06:36.690Z,99.90
2023-05-06T12:11:40.901Z,99.90
2023-05-06T12:16:44.145Z,99.90
2023-05-06T12:21:46.526Z,99.90
2023-05-06T12:26:49.773Z,99.90
2023-05-06T12:32:11.046Z,99.90
2023-05-06T12:37:27.980Z,99.90
2023-05-06T12:42:30.317Z,99.90
2023-05-06T12:47:32.563Z,99.90
2023-05-06T12:52:43.838Z,99.90
2023-05-06T12:57:46.405Z,99.90
2023-05-06T13:02:48.755Z,99.90
2023-05-06T13:07:51.310Z,99.90
2023-05-06T13:12:54.073Z,99.90
2023-05-06T13:17:57.305Z,99.90
2023-05-06T13:22:59.685Z,99.90
2023-05-06T13:28:01.985Z,99.90
2023-05-06T13:33:04.413Z,99.90
2023-05-06T13:38:06.654Z,99.90
2023-05-06T13:43:09.161Z,99.90
2023-05-06T13:48:15.141Z,99.90
2023-05-06T13:53:17.411Z,99.90
2023-05-06T13:58:19.738Z,99.90
2023-05-06T14:03:22.006Z,99.90
2023-05-06T14:08:24.244Z,99.90
2023-05-06T14:13:28.248Z,99.90
2023-05-06T14:18:31.352Z,99.90
2023-05-06T14:23:33.676Z,99.90
2023-05-06T14:28:36.062Z,99.90
2023-05-06T14:33:38.917Z,99.90
2023-05-06T14:38:41.210Z,99.90
2023-05-06T14:43:43.529Z,99.90
2023-05-06T14:48:46.173Z,99.90
2023-05-06T14:53:49.647Z,99.90
2023-05-06T14:58:52.164Z,99.90
2023-05-06T15:03:54.757Z,99.90
2023-05-06T15:08:56.973Z,99.90
2023-05-06T15:13:59.549Z,99.90
2023-05-06T15:19:01.859Z,99.90
2023-05-06T15:24:04.561Z,99.90
2023-05-06T15:29:07.352Z,99.90
2023-05-06T15:34:10.942Z,99.90
2023-05-06T15:39:13.207Z,99.90
2023-05-06T15:44:16.382Z,99.90
2023-05-06T15:49:47.337Z,99.90
2023-05-06T15:54:41.383Z,99.90
2023-05-06T15:59:43.677Z,99.90
2023-05-06T16:04:46.046Z,99.90
2023-05-06T16:09:49.883Z,99.90
2023-05-06T16:14:52.471Z,99.90
2023-05-06T16:19:54.738Z,99.90
2023-05-06T16:24:57.532Z,99.90
2023-05-06T16:29:59.829Z,99.90
2023-05-06T16:35:02.192Z,99.90
2023-05-06T16:40:04.943Z,99.90
2023-05-06T16:45:07.924Z,99.90
2023-05-06T16:50:11.821Z,99.90
2023-05-06T16:55:14.486Z,99.90
2023-05-06T17:00:17.155Z,99.90
2023-05-06T17:05:21.441Z,99.90
2023-05-06T17:10:29.139Z,99.90
2023-05-06T17:15:31.864Z,99.90
2023-05-06T17:20:51.729Z,99.90
2023-05-06T17:25:57.322Z,99.90
2023-05-06T17:30:59.614Z,99.90
2023-05-06T17:36:01.961Z,99.90
2023-05-06T17:41:04.357Z,99.90
2023-05-06T17:46:07.950Z,99.90
2023-05-06T17:51:10.221Z,99.90
2023-05-06T17:56:12.575Z,99.90
2023-05-06T18:01:14.895Z,99.90
2023-05-06T18:06:17.136Z,99.90
2023-05-06T18:11:19.348Z,99.90
2023-05-06T18:16:22.209Z,99.90
2023-05-06T18:21:24.549Z,99.90
2023-05-06T18:26:43.414Z,99.90
2023-05-06T18:31:47.504Z,99.90
2023-05-06T18:36:49.770Z,99.90
2023-05-06T18:41:52.446Z,99.90
2023-05-06T18:46:54.679Z,99.90
2023-05-06T18:51:57.285Z,99.90
2023-05-06T18:57:01.111Z,99.90
2023-05-06T19:02:04.117Z,99.90
2023-05-06T19:07:07.606Z,99.90
2023-05-06T19:12:09.872Z,99.90
2023-05-06T19:17:12.679Z,99.90
2023-05-06T19:22:16.169Z,99.90
2023-05-06T19:27:18.485Z,99.90
2023-05-06T19:32:21.136Z,99.90
2023-05-06T19:37:23.499Z,99.90
2023-05-06T19:42:25.823Z,99.90
2023-05-06T19:47:29.589Z,99.90
2023-05-06T19:52:34.404Z,99.90
2023-05-06T19:57:37.408Z,99.90
2023-05-06T20:02:40.060Z,99.90
2023-05-06T20:07:42.465Z,99.90
2023-05-06T20:12:44.790Z,99.90
2023-05-06T20:17:47.561Z,99.90
2023-05-06T20:22:49.890Z,99.90
2023-05-06T20:27:52.467Z,99.90
2023-05-06T20:32:54.851Z,99.90
2023-05-06T20:37:57.167Z,99.90
2023-05-06T20:42:59.381Z,99.90
2023-05-06T20:48:01.836Z,99.90
2023-05-06T20:53:04.111Z,99.90
2023-05-06T20:58:06.853Z,99.90
2023-05-06T21:03:09.284Z,99.90
2023-05-06T21:08:12.511Z,99.90
2023-05-06T21:13:14.823Z,99.90
2023-05-06T21:18:17.816Z,99.90
2023-05-06T21:23:20.247Z,99.90
2023-05-06T21:28:22.632Z,99.90
2023-05-06T21:33:24.945Z,99.90
2023-05-06T21:38:27.876Z,99.90
2023-05-06T21:43:31.453Z,99.90
2023-05-06T21:48:35.653Z,99.90
2023-05-06T21:53:38.021Z,99.90
2023-05-06T21:58:40.496Z,99.90
2023-05-06T22:03:43.684Z,99.90
2023-05-06T22:08:46.210Z,99.90
2023-05-06T22:13:48.470Z,99.90
2023-05-06T22:18:52.136Z,99.90
2023-05-06T22:23:54.356Z,99.90
2023-05-06T22:28:56.939Z,99.90
2023-05-06T22:34:03.593Z,99.90
2023-05-06T22:39:06.023Z,99.90
2023-05-06T22:44:08.358Z,99.90
2023-05-06T22:49:10.703Z,99.90
2023-05-06T22:54:12.972Z,99.90
2023-05-06T22:59:15.659Z,99.90
2023-05-06T23:04:18.032Z,99.90
2023-05-06T23:09:20.535Z,99.90
2023-05-06T23:14:23.175Z,99.90
2023-05-06T23:19:26.043Z,99.90
2023-05-06T23:24:28.271Z,99.90
2023-05-06T23:29:30.907Z,99.90
2023-05-06T23:34:33.249Z,99.90
2023-05-06T23:39:35.606Z,99.90
2023-05-06T23:44:37.846Z,99.90
2023-05-06T23:49:40.082Z,99.90
2023-05-06T23:54:42.371Z,99.90
2023-05-06T23:59:44.678Z,99.90
